Aérodrome :
LOGIN :

S'inscrire | Disclaimer

   EN    FR    IT 

 










Légende :    VFR   VFR Marginal   IFR   IFR Intensif   IFR Très Intensif
Visi : 
Plafond : 
>= 8 km
>= 3000ft
5 à 8 km
1000 à 3000 ft
1500m à 5 km
500 à 1000 ft
800 à 1500m
200 à 500 ft
< 800m
< 200 ft
Symboles :   Orages  Brouillard  Fortes neiges  Fortes précipitations  Vent > 20 kt
SIGMETs :   Divers  Orages  Givrage  Turbulence  Onde Orograph.  Cendres Volcan.







- Altitude de l'aérodrome : 512 ft
- Code IATA : URO
- Voir les cartes d'approche


LFOP - Rouen Vallée de Seine

DERNIER METAR :
  • 110000Z AUTO 07002KT 9999 FEW025 SCT110 04/03 Q1027

METARs EXPIRÉS :
  • 102330Z AUTO 00000KT CAVOK 04/03 Q1027
  • 102300Z AUTO 32002KT CAVOK 05/04 Q1027
  • 102230Z AUTO VRB02KT CAVOK 05/04 Q1027
  • 102200Z AUTO 26007KT 9999 FEW043 BKN110 06/05 Q1027 TEMPO 0300 FG VV///
  • 102130Z AUTO 28004KT 240V300 9999 FEW025 SCT038 OVC046 06/05 Q1028 TEMPO 0300 FG VV///

TAF TAF LFOP
Valide du 10 à 18h jusqu'au 11 à 18h UTC


101700Z 1018/1118 29007KT 9999 BKN030
BECMG 1020/1023 3000 BR
PROB40 1023/1108 0300 FG VV///
BECMG 1108/1111 7000 NSW
ATIS : +33 2 35 80 80 34
Météo : +33 2 32 86 52 80
Pas de NOTAMs connus pour ce terrain.



MET'MAP, la Météo Aéronautique d'un coup d'oeil ! - Copyright ORBIFLY Décembre 2007 - Disclaimer

ORBIFLY MET'MAP TEAM :

Programmation & Développement : Alexandra Zaïnal
Conception & Développement : Baudouin d'Aumeries
Co-Programmation & Développement : Marc-Olivier Méhu
Soutien technique & logistique : Manuel Goepfert

Contact : metmap@orbifly.com




SOURCES & CREDITS :

   NOAA